This is the latest recevied weather packets stored in our database for station/object KB1WCR. If no packets are shown the sender has not sent any weather packets the latest 10 day(s).
| Time | Temp. | Humidity | Pressure | Rain* | Wind** | Luminosity | Snow |
|---|---|---|---|---|---|---|---|
| 1777753266 | 8.33° C | 99% | 1011 hPa | 0 mm | - | 14 W/m² | - |
| 1777752962 | 8.33° C | 99% | 1011.1 hPa | 0 mm | - | 16 W/m² | - |
| 1777752659 | 8.33° C | 99% | 1011 hPa | 1.78 mm | - | 21 W/m² | - |
| 1777752354 | 8.33° C | 99% | 1010.9 hPa | 3.05 mm | - | 38 W/m² | - |
| 1777752052 | 8.33° C | 99% | 1011.1 hPa | 3.05 mm | - | 52 W/m² | - |
| 1777751750 | 8.33° C | 98% | 1011.2 hPa | 3.05 mm | - | 91 W/m² | - |
| 1777751446 | 8.33° C | 98% | 1011.2 hPa | 1.27 mm | - | 31 W/m² | - |
| 1777751143 | 8.89° C | 98% | 1011.2 hPa | 0 mm | - | 27 W/m² | - |
| 1777750839 | 8.89° C | 97% | 1011.3 hPa | 0 mm | - | 42 W/m² | - |
| 1777750536 | 8.89° C | 96% | 1011.2 hPa | 0 mm | - | 36 W/m² | - |
| 1777750233 | 8.89° C | 96% | 1011.3 hPa | 0 mm | - | 27 W/m² | - |
| 1777749928 | 8.89° C | 96% | 1011.4 hPa | 0 mm | - | 26 W/m² | - |
| 1777749626 | 8.89° C | 96% | 1011.4 hPa | 0 mm | - | 41 W/m² | - |
| 1777749323 | 8.89° C | 96% | 1011.3 hPa | 0 mm | - | 60 W/m² | - |
| 1777749021 | 8.89° C | 96% | 1011.3 hPa | 0 mm | - | 38 W/m² | - |
| 1777748718 | 8.89° C | 96% | 1011.5 hPa | 0 mm | - | 51 W/m² | - |
| 1777748415 | 8.89° C | 96% | 1011.4 hPa | 1.78 mm | - | 76 W/m² | - |
| 1777748110 | 8.89° C | 96% | 1011.6 hPa | 1.78 mm | - | 154 W/m² | - |
| 1777747807 | 8.89° C | 95% | 1011.7 hPa | 0 mm | - | 83 W/m² | - |
| 1777747502 | 8.89° C | 94% | 1011.9 hPa | 0 mm | - | 36 W/m² | - |
| 1777747199 | 9.44° C | 94% | 1011.7 hPa | 0 mm | - | 57 W/m² | - |
| 1777746895 | 8.89° C | 93% | 1011.7 hPa | 0 mm | - | 60 W/m² | - |
| 1777746590 | 9.44° C | 92% | 1011.7 hPa | 0 mm | - | 61 W/m² | - |
| 1777746286 | 9.44° C | 91% | 1011.8 hPa | 0 mm | - | 56 W/m² | - |
| 1777745982 | 9.44° C | 91% | 1011.7 hPa | 0 mm | - | 108 W/m² | - |
* Rain latest hour (hover to see other rain measurements)
** Current wind speed in m/s (hover to see current wind gust speed)